Time;durP1;ratioP1;P1;durP2;ratioP2;P2;SDS_P1;SDS_P2;PMS_P1;PMS_P2;Temp;Humidity;BMP_temperature;BMP_pressure;BME280_temperature;BME280_humidity;BME280_pressure;Samples;Min_cycle;Max_cycle;Signal;HPM_P1;HPM_P2
2022/06/22 00:00:13;;;;;;;23.67;21.23;;;;;;;11.84;nan;98689.13;2107978;28;20588;-75
2022/06/22 00:01:20;;;;;;;26.33;22.40;;;;;;;11.81;nan;98681.72;2100019;28;20268;-74
2022/06/22 00:02:24;;;;;;;24.25;21.90;;;;;;;11.80;nan;98685.50;2108271;28;20201;-74
2022/06/22 00:03:26;;;;;;;25.70;21.70;;;;;;;11.79;nan;98688.47;2108514;28;20279;-74
2022/06/22 00:04:35;;;;;;;24.92;21.70;;;;;;;11.75;nan;98684.84;2116132;28;20678;-74
2022/06/22 00:05:43;;;;;;;24.58;22.17;;;;;;;11.70;nan;98679.63;2108663;28;20212;-74
2022/06/22 00:06:45;;;;;;;25.15;22.05;;;;;;;11.66;nan;98689.38;2108374;28;20702;-74
2022/06/22 00:07:51;;;;;;;27.83;22.85;;;;;;;11.62;nan;98689.22;2107937;28;20197;-74
2022/06/22 00:08:52;;;;;;;27.25;22.67;;;;;;;11.60;nan;98686.06;2108075;28;20170;-74
2022/06/22 00:09:56;;;;;;;25.20;21.90;;;;;;;11.58;nan;98678.38;2116299;28;20201;-74
2022/06/22 00:11:03;;;;;;;27.02;22.98;;;;;;;11.56;nan;98677.13;2116393;28;20188;-74
2022/06/22 00:12:09;;;;;;;24.38;21.88;;;;;;;11.55;nan;98678.19;2107912;28;20194;-74
2022/06/22 00:13:16;;;;;;;25.02;22.15;;;;;;;11.53;nan;98672.38;2108093;28;20231;-74
2022/06/22 00:14:19;;;;;;;24.30;21.73;;;;;;;11.53;nan;98675.84;2108755;28;20264;-74
2022/06/22 00:15:23;;;;;;;23.98;21.63;;;;;;;11.55;nan;98671.00;2108546;28;20193;-74
2022/06/22 00:16:26;;;;;;;25.67;22.85;;;;;;;11.55;nan;98681.69;2108533;28;20181;-74
2022/06/22 00:17:32;;;;;;;25.45;21.77;;;;;;;11.55;nan;98681.69;2108461;28;20280;-74
2022/06/22 00:18:36;;;;;;;28.80;22.30;;;;;;;11.57;nan;98686.69;2108596;28;20173;-74
2022/06/22 00:19:41;;;;;;;24.83;21.83;;;;;;;11.57;nan;98681.34;2108718;28;20197;-74
2022/06/22 00:20:50;;;;;;;25.13;21.80;;;;;;;11.60;nan;98686.06;2107729;28;20227;-74
2022/06/22 00:21:50;;;;;;;25.05;22.08;;;;;;;11.67;nan;98682.94;2107642;28;20221;-74
2022/06/22 00:22:54;;;;;;;25.87;22.07;;;;;;;11.66;nan;98686.72;2108464;28;20191;-74
2022/06/22 00:23:56;;;;;;;24.65;22.15;;;;;;;11.63;nan;98685.44;2108500;28;20229;-75
2022/06/22 00:25:12;;;;;;;25.48;22.40;;;;;;;11.63;nan;98682.75;2108698;28;20648;-74
2022/06/22 00:26:25;;;;;;;24.05;21.65;;;;;;;11.65;nan;98690.50;2107808;28;20235;-74
2022/06/22 00:27:31;;;;;;;24.85;22.00;;;;;;;11.67;nan;98691.75;2101313;28;20182;-74
2022/06/22 00:28:34;;;;;;;26.63;23.13;;;;;;;11.70;nan;98691.13;2107855;28;20194;-74
2022/06/22 00:29:37;;;;;;;24.48;22.08;;;;;;;11.71;nan;98690.00;2107721;28;20220;-74
2022/06/22 00:30:45;;;;;;;25.48;22.70;;;;;;;11.71;nan;98697.25;2107849;28;20185;-74
2022/06/22 00:32:01;;;;;;;26.25;23.20;;;;;;;11.74;nan;98694.75;2107798;28;20682;-74
2022/06/22 00:33:14;;;;;;;24.90;22.27;;;;;;;11.74;nan;98697.44;2108198;28;20191;-74
2022/06/22 00:34:22;;;;;;;25.23;22.58;;;;;;;11.76;nan;98695.22;2108476;28;20173;-74
2022/06/22 00:35:47;;;;;;;25.80;23.15;;;;;;;11.73;nan;98690.50;2108620;28;20272;-74
2022/06/22 00:36:51;;;;;;;26.67;22.70;;;;;;;11.74;nan;98692.09;2108091;28;20683;-74
2022/06/22 00:37:53;;;;;;;24.95;22.30;;;;;;;11.72;nan;98694.25;2108315;28;20526;-75
2022/06/22 00:38:56;;;;;;;29.40;22.40;;;;;;;11.70;nan;98695.66;2108374;28;20186;-74
2022/06/22 00:40:00;;;;;;;25.52;22.92;;;;;;;11.72;nan;98712.19;2107635;28;20301;-74
2022/06/22 00:41:04;;;;;;;24.65;22.02;;;;;;;11.72;nan;98704.16;2107971;28;20190;-74
2022/06/22 00:42:21;;;;;;;24.80;22.25;;;;;;;11.76;nan;98711.25;2115856;28;20309;-74
2022/06/22 00:43:28;;;;;;;23.35;21.08;;;;;;;11.75;nan;98723.06;2116148;28;20193;-74
2022/06/22 00:44:30;;;;;;;24.83;22.23;;;;;;;11.72;nan;98715.63;2115627;28;20259;-74
2022/06/22 00:45:34;;;;;;;24.17;21.73;;;;;;;11.72;nan;98720.97;2108276;28;20194;-74
2022/06/22 00:46:41;;;;;;;23.70;21.25;;;;;;;11.70;nan;98722.41;2107779;28;20201;-74
2022/06/22 00:47:45;;;;;;;23.23;21.27;;;;;;;11.69;nan;98718.94;2107808;28;20197;-74
2022/06/22 00:48:48;;;;;;;23.90;21.58;;;;;;;11.71;nan;98713.28;2108400;28;20276;-74
2022/06/22 00:49:49;;;;;;;23.98;21.38;;;;;;;11.72;nan;98718.31;2108490;28;20640;-74
2022/06/22 00:50:58;;;;;;;23.53;21.27;;;;;;;11.76;nan;98721.16;2107618;28;20573;-74
2022/06/22 00:52:00;;;;;;;23.33;21.02;;;;;;;11.74;nan;98724.16;2107593;28;20655;-74
2022/06/22 00:53:05;;;;;;;24.40;22.00;;;;;;;11.81;nan;98724.47;2108231;28;20178;-74
2022/06/22 00:54:10;;;;;;;25.67;21.90;;;;;;;11.82;nan;98728.75;2107573;28;20746;-74
2022/06/22 00:55:28;;;;;;;24.75;21.80;;;;;;;11.77;nan;98726.19;2107819;28;20695;-74
2022/06/22 00:56:41;;;;;;;23.17;21.00;;;;;;;11.72;nan;98725.53;2108297;28;20616;-74
2022/06/22 00:57:48;;;;;;;24.58;22.10;;;;;;;11.69;nan;98729.63;2108284;28;20170;-74
2022/06/22 00:58:57;;;;;;;24.83;22.45;;;;;;;11.72;nan;98731.66;2108250;28;20181;-74
2022/06/22 01:00:03;;;;;;;24.27;21.67;;;;;;;11.73;nan;98735.16;2108467;28;20227;-74
2022/06/22 01:01:07;;;;;;;23.25;21.05;;;;;;;11.71;nan;98727.44;2108331;28;20166;-74
2022/06/22 01:02:27;;;;;;;23.67;21.42;;;;;;;11.72;nan;98728.22;2108170;28;20541;-74
2022/06/22 01:03:34;;;;;;;23.83;21.55;;;;;;;11.69;nan;98732.31;2108335;28;20173;-74
2022/06/22 01:04:38;;;;;;;24.90;22.35;;;;;;;11.68;nan;98725.38;2107884;28;20576;-74
2022/06/22 01:05:45;;;;;;;24.67;22.10;;;;;;;11.71;nan;98724.75;2108070;28;20676;-75
2022/06/22 01:06:53;;;;;;;23.73;21.17;;;;;;;11.71;nan;98740.00;2115615;28;20582;-74
2022/06/22 01:08:01;;;;;;;24.23;21.83;;;;;;;11.71;nan;98740.78;2107460;28;20197;-74
2022/06/22 01:09:08;;;;;;;24.40;22.00;;;;;;;11.72;nan;98747.69;2107780;28;20176;-74
2022/06/22 01:10:12;;;;;;;23.42;21.15;;;;;;;11.65;nan;98742.06;2108496;28;20181;-74
2022/06/22 01:12:41;;;;;;;25.02;22.48;;;;;;;11.65;nan;98757.31;2101018;28;20198;-74
2022/06/22 01:13:45;;;;;;;23.60;21.40;;;;;;;11.65;nan;98757.31;2107607;28;20186;-74
2022/06/22 01:14:58;;;;;;;24.40;21.95;;;;;;;11.59;nan;98754.75;2108035;28;20210;-74
2022/06/22 01:16:03;;;;;;;24.15;21.85;;;;;;;11.56;nan;98750.03;2107415;28;20223;-74
2022/06/22 01:17:05;;;;;;;28.10;21.77;;;;;;;11.57;nan;98750.81;2107466;28;20276;-74
2022/06/22 01:18:10;;;;;;;23.63;21.50;;;;;;;11.57;nan;98754.28;2107634;28;20197;-74
2022/06/22 01:19:17;;;;;;;24.73;22.13;;;;;;;11.56;nan;98755.38;2107700;28;20243;-74
2022/06/22 01:20:25;;;;;;;24.15;21.95;;;;;;;11.54;nan;98749.53;2108154;28;20178;-74
2022/06/22 01:21:33;;;;;;;24.58;21.98;;;;;;;11.58;nan;98752.41;2107658;28;20224;-74
2022/06/22 01:22:57;;;;;;;23.60;21.52;;;;;;;11.59;nan;98752.09;2108285;28;20226;-74
2022/06/22 01:24:19;;;;;;;23.67;21.45;;;;;;;11.66;nan;98753.53;2103398;28;20205;-74
2022/06/22 01:25:32;;;;;;;24.08;21.85;;;;;;;11.65;nan;98750.06;2102048;28;20292;-74
2022/06/22 01:26:48;;;;;;;24.33;21.98;;;;;;;11.65;nan;98749.28;2107530;28;20260;-74
2022/06/22 01:27:52;;;;;;;23.42;21.25;;;;;;;11.59;nan;98745.94;2107585;28;20220;-74
2022/06/22 01:28:56;;;;;;;23.65;21.30;;;;;;;11.60;nan;98745.63;2107408;28;20186;-74
2022/06/22 01:30:00;;;;;;;27.08;21.45;;;;;;;11.58;nan;98747.84;2107951;28;20618;-74
2022/06/22 01:31:05;;;;;;;23.85;21.55;;;;;;;11.59;nan;98751.31;2115696;28;20189;-74
2022/06/22 01:32:11;;;;;;;24.27;21.63;;;;;;;11.59;nan;98751.31;2115390;28;20188;-74
2022/06/22 01:33:19;;;;;;;24.10;21.95;;;;;;;11.54;nan;98749.53;2108166;28;20185;-74
2022/06/22 01:34:20;;;;;;;23.15;20.95;;;;;;;11.59;nan;98759.31;2107328;28;20277;-75
2022/06/22 01:35:30;;;;;;;23.65;21.27;;;;;;;11.54;nan;98740.75;2107232;28;20213;-73
2022/06/22 01:36:33;;;;;;;23.92;21.38;;;;;;;11.54;nan;98751.44;2106737;28;20225;-75
2022/06/22 01:37:34;;;;;;;23.75;21.42;;;;;;;11.53;nan;98745.28;2099142;28;20708;-74
2022/06/22 01:38:39;;;;;;;23.67;21.57;;;;;;;11.53;nan;98739.97;2107300;28;20594;-74
2022/06/22 01:39:39;;;;;;;23.60;21.60;;;;;;;11.53;nan;98744.50;2115608;28;20228;-74
2022/06/22 01:40:45;;;;;;;22.60;20.70;;;;;;;11.54;nan;98749.53;2115697;28;20192;-74
2022/06/22 01:41:51;;;;;;;23.23;20.83;;;;;;;11.56;nan;98743.91;2106887;28;20610;-75
2022/06/22 01:42:58;;;;;;;23.92;21.67;;;;;;;11.53;nan;98739.97;2107387;28;20194;-74
2022/06/22 01:44:03;;;;;;;27.95;20.95;;;;;;;11.54;nan;98754.09;2108104;28;20181;-74
2022/06/22 01:45:10;;;;;;;23.58;21.30;;;;;;;11.52;nan;98742.94;2107822;28;20205;-74
2022/06/22 01:46:16;;;;;;;24.25;21.73;;;;;;;11.51;nan;98752.84;2107863;28;20210;-74
2022/06/22 01:47:25;;;;;;;24.35;21.88;;;;;;;11.46;nan;98744.94;2107867;28;20586;-74
2022/06/22 01:48:31;;;;;;;22.55;20.65;;;;;;;11.45;nan;98750.59;2107865;28;20624;-74
2022/06/22 01:49:38;;;;;;;23.63;21.25;;;;;;;11.42;nan;98748.56;2108077;28;20260;-74
2022/06/22 01:50:43;;;;;;;24.02;21.83;;;;;;;11.42;nan;98744.00;2107830;28;20546;-74
2022/06/22 01:51:47;;;;;;;23.92;21.52;;;;;;;11.44;nan;98746.38;2107544;28;20291;-74
2022/06/22 01:52:53;;;;;;;24.33;21.80;;;;;;;11.43;nan;98750.94;2107963;28;20201;-74
2022/06/22 01:53:59;;;;;;;23.80;21.50;;;;;;;11.44;nan;98762.41;2107777;28;20178;-74
2022/06/22 01:55:04;;;;;;;23.73;21.38;;;;;;;11.45;nan;98758.63;2106977;28;20193;-74
2022/06/22 01:56:15;;;;;;;23.67;21.48;;;;;;;11.48;nan;98753.47;2107378;28;20166;-74
2022/06/22 01:57:18;;;;;;;24.52;22.23;;;;;;;11.49;nan;98755.03;2108047;28;20266;-74
2022/06/22 01:58:34;;;;;;;24.55;21.55;;;;;;;11.51;nan;98750.16;2107691;28;20186;-74
2022/06/22 01:59:39;;;;;;;23.23;21.08;;;;;;;11.50;nan;98751.28;2107992;28;20174;-74
2022/06/22 02:00:41;;;;;;;24.30;21.98;;;;;;;11.49;nan;98765.72;2107699;28;20213;-74
2022/06/22 02:01:47;;;;;;;23.65;21.55;;;;;;;11.45;nan;98763.97;2107702;28;20239;-74
2022/06/22 02:02:52;;;;;;;22.85;20.65;;;;;;;11.42;nan;98762.72;2107963;28;20202;-74
2022/06/22 02:04:05;;;;;;;26.33;21.30;;;;;;;11.41;nan;98763.81;2107759;28;20655;-75
2022/06/22 02:05:18;;;;;;;23.52;21.42;;;;;;;11.44;nan;98757.84;2107700;28;20217;-74
2022/06/22 02:07:46;;;;;;;22.83;20.63;;;;;;;11.37;nan;98751.38;2107294;28;20288;-74
2022/06/22 02:08:47;;;;;;;22.00;19.98;;;;;;;11.33;nan;98756.53;2107141;28;20174;-74
2022/06/22 02:10:03;;;;;;;22.15;20.25;;;;;;;11.30;nan;98752.63;2107721;28;20207;-74
2022/06/22 02:11:08;;;;;;;23.10;21.13;;;;;;;11.26;nan;98762.31;2106952;28;20242;-74
2022/06/22 02:12:26;;;;;;;22.92;20.67;;;;;;;11.22;nan;98764.03;2107443;28;20323;-74
2022/06/22 02:13:32;;;;;;;22.80;20.58;;;;;;;11.26;nan;98767.66;2113501;28;20210;-74
2022/06/22 02:14:33;;;;;;;24.95;21.83;;;;;;;11.27;nan;98768.44;2107881;28;20174;-74
2022/06/22 02:15:48;;;;;;;23.57;21.20;;;;;;;11.27;nan;98771.13;2107622;28;20206;-74
2022/06/22 02:16:53;;;;;;;22.92;20.83;;;;;;;11.26;nan;98772.22;2107018;28;20169;-74
2022/06/22 02:17:56;;;;;;;24.45;21.90;;;;;;;11.27;nan;98774.56;2107651;28;20178;-74
2022/06/22 02:19:10;;;;;;;24.50;21.98;;;;;;;11.29;nan;98771.59;2107711;28;20274;-74
2022/06/22 02:20:34;;;;;;;24.00;21.80;;;;;;;11.25;nan;98771.44;2107605;28;20173;-73
2022/06/22 02:21:39;;;;;;;23.75;21.33;;;;;;;11.23;nan;98772.84;2109233;28;20232;-74
2022/06/22 02:22:42;;;;;;;24.05;21.75;;;;;;;11.20;nan;98771.56;2115017;28;20173;-74
2022/06/22 02:23:48;;;;;;;24.52;21.92;;;;;;;11.19;nan;98761.97;2107517;28;20659;-74
2022/06/22 02:24:49;;;;;;;24.85;21.52;;;;;;;11.12;nan;98764.31;2107510;28;20200;-74
2022/06/22 02:25:57;;;;;;;25.30;22.77;;;;;;;11.12;nan;98760.81;2107604;28;20185;-74
2022/06/22 02:27:02;;;;;;;23.25;21.05;;;;;;;11.11;nan;98757.38;2107795;28;20178;-74
2022/06/22 02:28:04;;;;;;;23.88;21.67;;;;;;;11.09;nan;98756.91;2107519;28;20174;-74
2022/06/22 02:29:07;;;;;;;23.75;21.38;;;;;;;11.07;nan;98760.97;2107524;28;20557;-74
2022/06/22 02:30:09;;;;;;;24.20;21.75;;;;;;;11.07;nan;98758.31;2107473;28;20207;-74
2022/06/22 02:31:12;;;;;;;23.88;21.50;;;;;;;11.05;nan;98761.28;2106836;28;20221;-74
2022/06/22 02:32:16;;;;;;;24.10;21.67;;;;;;;11.04;nan;98762.38;2107089;28;20209;-73
2022/06/22 02:33:17;;;;;;;24.17;21.77;;;;;;;11.03;nan;98763.44;2107544;28;20204;-74
2022/06/22 02:34:18;;;;;;;23.95;21.15;;;;;;;11.02;nan;98767.22;2106839;28;20233;-75
2022/06/22 02:35:22;;;;;;;23.73;21.40;;;;;;;11.02;nan;98772.56;2098248;28;20202;-74
2022/06/22 02:36:28;;;;;;;23.83;21.40;;;;;;;11.03;nan;98760.78;2098412;28;20218;-74
2022/06/22 02:37:31;;;;;;;23.95;21.63;;;;;;;11.01;nan;98761.09;2106847;28;20202;-74
2022/06/22 02:38:33;;;;;;;23.20;21.02;;;;;;;11.02;nan;98772.56;2107605;28;20277;-74
2022/06/22 02:39:37;;;;;;;24.02;21.83;;;;;;;11.00;nan;98766.75;2106771;28;20232;-74
2022/06/22 02:44:46;;;;;;;24.00;21.70;;;;;;;10.89;nan;98778.78;2107135;28;20555;-75
2022/06/22 02:45:47;;;;;;;23.85;21.63;;;;;;;10.85;nan;98780.47;2106966;28;20225;-74
2022/06/22 02:46:49;;;;;;;23.50;21.23;;;;;;;10.81;nan;98782.97;2106987;28;20197;-74
2022/06/22 02:47:54;;;;;;;23.15;21.08;;;;;;;10.78;nan;98782.78;2107357;28;20253;-74
2022/06/22 02:48:59;;;;;;;22.55;20.52;;;;;;;10.72;nan;98788.25;2107358;28;20725;-74
2022/06/22 02:50:07;;;;;;;23.23;21.17;;;;;;;10.68;nan;98794.47;2107444;28;20261;-74
2022/06/22 02:51:14;;;;;;;24.63;21.55;;;;;;;10.64;nan;98794.28;2106837;28;20627;-75
2022/06/22 02:52:17;;;;;;;23.20;21.20;;;;;;;10.61;nan;98800.25;2107442;28;20168;-74
2022/06/22 02:53:23;;;;;;;24.75;22.15;;;;;;;10.62;nan;98795.69;2106639;28;20193;-74
2022/06/22 02:54:41;;;;;;;24.35;21.90;;;;;;;10.64;nan;98804.19;2107294;28;20629;-74
2022/06/22 02:55:42;;;;;;;24.15;21.85;;;;;;;10.65;nan;98806.53;2112954;28;20653;-75
2022/06/22 02:56:47;;;;;;;23.77;21.53;;;;;;;10.65;nan;98814.53;2107314;28;20206;-74
2022/06/22 02:57:57;;;;;;;22.75;20.60;;;;;;;10.76;nan;98813.22;2107353;28;20201;-74
2022/06/22 02:58:58;;;;;;;24.65;22.25;;;;;;;10.76;nan;98807.09;2107529;28;20174;-74
2022/06/22 03:00:02;;;;;;;25.65;22.25;;;;;;;10.79;nan;98813.72;2107431;28;20228;-74
2022/06/22 03:01:05;;;;;;;24.77;22.30;;;;;;;10.80;nan;98815.28;2106533;28;20669;-74
2022/06/22 03:02:07;;;;;;;24.77;22.40;;;;;;;10.76;nan;98812.41;2106873;28;20301;-74
2022/06/22 03:03:12;;;;;;;24.77;22.55;;;;;;;10.79;nan;98811.03;2115037;28;20192;-74
2022/06/22 03:04:17;;;;;;;24.80;22.55;;;;;;;10.79;nan;98816.38;2107244;28;20613;-73
2022/06/22 03:05:19;;;;;;;24.40;21.75;;;;;;;10.81;nan;98820.31;2107326;28;20189;-74
2022/06/22 03:06:22;;;;;;;29.88;22.60;;;;;;;10.82;nan;98811.22;2106830;28;20221;-74
2022/06/22 03:07:23;;;;;;;24.88;22.25;;;;;;;10.84;nan;98814.38;2107228;28;20268;-74
2022/06/22 03:08:25;;;;;;;25.90;22.17;;;;;;;10.86;nan;98811.38;2107192;28;20663;-74
2022/06/22 03:09:27;;;;;;;24.35;22.17;;;;;;;10.85;nan;98809.81;2107180;28;20185;-74
2022/06/22 03:10:33;;;;;;;24.63;22.40;;;;;;;10.88;nan;98820.69;2107198;28;20224;-74
2022/06/22 03:11:37;;;;;;;25.00;22.30;;;;;;;10.90;nan;98823.06;2106504;28;20762;-74
2022/06/22 03:12:39;;;;;;;24.63;22.38;;;;;;;10.90;nan;98817.72;2106745;28;20192;-74
2022/06/22 03:13:43;;;;;;;24.35;21.83;;;;;;;10.92;nan;98820.88;2106512;28;20201;-74
2022/06/22 03:14:51;;;;;;;25.23;22.75;;;;;;;10.92;nan;98816.31;2098503;28;20198;-74
2022/06/22 03:15:53;;;;;;;24.52;21.92;;;;;;;10.96;nan;98819.97;2107301;28;20206;-75
2022/06/22 03:16:57;;;;;;;25.58;23.05;;;;;;;10.93;nan;98817.88;2114931;28;20272;-74
2022/06/22 03:18:00;;;;;;;28.77;22.70;;;;;;;10.96;nan;98824.53;2106450;28;20703;-74
2022/06/22 03:19:06;;;;;;;25.27;23.00;;;;;;;10.96;nan;98822.63;2106830;28;20677;-73
2022/06/22 03:20:13;;;;;;;25.73;22.90;;;;;;;10.95;nan;98821.06;2114356;28;20200;-74
2022/06/22 03:21:14;;;;;;;25.33;23.02;;;;;;;10.96;nan;98824.53;2106951;28;20678;-74
2022/06/22 03:22:17;;;;;;;25.23;22.92;;;;;;;10.97;nan;98826.09;2107153;28;20552;-74
2022/06/22 03:23:22;;;;;;;27.83;23.98;;;;;;;11.01;nan;98824.38;2107131;28;20193;-74
2022/06/22 03:24:36;;;;;;;25.05;22.50;;;;;;;11.03;nan;98830.19;2106414;28;20189;-74
2022/06/22 03:25:44;;;;;;;25.45;23.00;;;;;;;11.06;nan;98834.94;2100225;28;20194;-74
2022/06/22 03:26:49;;;;;;;25.25;23.05;;;;;;;11.07;nan;98838.41;2106574;28;20281;-74
2022/06/22 03:27:54;;;;;;;24.48;22.20;;;;;;;11.05;nan;98838.72;2106935;28;20201;-74
2022/06/22 03:29:01;;;;;;;26.73;24.23;;;;;;;11.06;nan;98837.63;2105753;28;20755;-74
2022/06/22 03:30:06;;;;;;;25.75;22.98;;;;;;;11.10;nan;98838.56;2106826;28;20193;-74
2022/06/22 03:31:14;;;;;;;25.30;22.85;;;;;;;11.13;nan;98837.97;2107090;28;20559;-74
2022/06/22 03:32:19;;;;;;;26.00;23.23;;;;;;;11.10;nan;98838.56;2107308;28;20197;-74
2022/06/22 03:33:25;;;;;;;25.80;23.08;;;;;;;11.09;nan;98844.22;2106415;28;20192;-74
2022/06/22 03:34:29;;;;;;;26.42;23.75;;;;;;;11.11;nan;98836.69;2106564;28;20204;-74
2022/06/22 03:35:35;;;;;;;25.88;23.27;;;;;;;11.11;nan;98839.34;2107187;28;20190;-75
2022/06/22 03:36:40;;;;;;;25.58;22.83;;;;;;;11.08;nan;98832.75;2106891;28;20245;-74
2022/06/22 03:37:46;;;;;;;26.30;23.27;;;;;;;11.09;nan;98837.00;2107009;28;20189;-74
2022/06/22 03:38:52;;;;;;;24.63;22.40;;;;;;;11.06;nan;98842.16;2106395;28;20198;-74
2022/06/22 03:39:56;;;;;;;26.35;23.48;;;;;;;11.10;nan;98835.13;2106605;28;20667;-74
2022/06/22 03:40:59;;;;;;;26.05;23.70;;;;;;;11.12;nan;98831.06;2107040;28;20530;-74
2022/06/22 03:42:04;;;;;;;26.30;23.65;;;;;;;11.13;nan;98827.31;2107088;28;20559;-74
2022/06/22 03:43:11;;;;;;;26.58;23.42;;;;;;;11.14;nan;98826.19;2106456;28;20228;-74
2022/06/22 03:44:16;;;;;;;26.13;23.52;;;;;;;11.13;nan;98826.50;2106621;28;20616;-74
2022/06/22 03:45:21;;;;;;;29.30;23.88;;;;;;;11.14;nan;98825.41;2106313;28;20280;-74
2022/06/22 03:46:28;;;;;;;25.73;23.13;;;;;;;11.18;nan;98823.69;2098592;28;20183;-74
2022/06/22 03:47:32;;;;;;;25.90;23.30;;;;;;;11.19;nan;98819.94;2106591;28;20209;-75
2022/06/22 03:48:37;;;;;;;26.80;23.65;;;;;;;11.19;nan;98820.72;2114692;28;20676;-75
2022/06/22 03:49:40;;;;;;;26.75;24.13;;;;;;;11.19;nan;98809.25;2114389;28;20212;-74
2022/06/22 03:50:47;;;;;;;26.42;23.80;;;;;;;11.19;nan;98819.94;2107097;28;20692;-74
2022/06/22 03:51:53;;;;;;;26.27;23.70;;;;;;;11.17;nan;98820.25;2106063;28;20713;-74
2022/06/22 03:53:00;;;;;;;25.52;22.80;;;;;;;11.18;nan;98813.81;2106708;28;20171;-74
2022/06/22 03:54:07;;;;;;;27.30;24.52;;;;;;;11.20;nan;98832.19;2106550;28;20266;-74
2022/06/22 03:55:12;;;;;;;26.70;23.98;;;;;;;11.19;nan;98826.06;2098833;28;20684;-74
2022/06/22 03:56:16;;;;;;;31.05;25.63;;;;;;;11.20;nan;98827.63;2106200;28;20691;-74
2022/06/22 03:57:19;;;;;;;27.55;24.55;;;;;;;11.21;nan;98818.56;2107015;28;20256;-74
2022/06/22 03:58:24;;;;;;;28.20;24.25;;;;;;;11.22;nan;98820.13;2106966;28;20213;-75
2022/06/22 03:59:28;;;;;;;26.38;23.65;;;;;;;11.25;nan;98818.72;2106971;28;20190;-74
2022/06/22 04:00:29;;;;;;;32.45;24.85;;;;;;;11.28;nan;98810.09;2106619;28;20197;-74
2022/06/22 04:01:32;;;;;;;27.00;24.13;;;;;;;11.33;nan;98812.63;2106564;28;20193;-74
2022/06/22 04:02:33;;;;;;;28.38;24.85;;;;;;;11.34;nan;98811.53;2106547;28;20204;-74
2022/06/22 04:03:35;;;;;;;30.00;24.27;;;;;;;11.35;nan;98813.09;2106372;28;20182;-75
2022/06/22 04:04:36;;;;;;;27.13;24.48;;;;;;;11.36;nan;98811.22;2105984;28;20308;-74
2022/06/22 04:05:42;;;;;;;26.13;23.30;;;;;;;11.37;nan;98812.78;2106395;28;20178;-74
2022/06/22 04:06:46;;;;;;;27.55;24.30;;;;;;;11.39;nan;98811.41;2106661;28;20222;-75
2022/06/22 04:07:48;;;;;;;31.20;23.90;;;;;;;11.40;nan;98799.63;2107130;28;20194;-74
2022/06/22 04:08:50;;;;;;;27.55;24.48;;;;;;;11.42;nan;98808.13;2106935;28;20315;-74
2022/06/22 04:09:54;;;;;;;26.70;23.90;;;;;;;11.43;nan;98804.34;2106866;28;20539;-74
2022/06/22 04:10:58;;;;;;;27.25;23.73;;;;;;;11.41;nan;98801.22;2107079;28;20644;-74
2022/06/22 04:12:06;;;;;;;30.92;24.05;;;;;;;11.43;nan;98798.22;2107139;28;20190;-74
2022/06/22 04:13:14;;;;;;;27.38;24.13;;;;;;;11.46;nan;98802.94;2107121;28;20174;-74
2022/06/22 04:14:20;;;;;;;26.70;23.95;;;;;;;11.47;nan;98801.88;2107175;28;20177;-74
2022/06/22 04:15:25;;;;;;;27.08;24.17;;;;;;;11.51;nan;98806.28;2106198;28;20200;-74
2022/06/22 04:16:30;;;;;;;25.02;22.50;;;;;;;11.53;nan;98813.97;2106312;28;20687;-74
2022/06/22 04:17:35;;;;;;;28.88;23.67;;;;;;;11.55;nan;98806.44;2107131;28;20209;-74
2022/06/22 04:18:42;;;;;;;27.58;22.95;;;;;;;11.56;nan;98808.81;2106207;28;20189;-74
2022/06/22 04:19:49;;;;;;;24.35;21.95;;;;;;;11.60;nan;98808.97;2098703;28;20732;-75
2022/06/22 04:20:54;;;;;;;27.42;23.15;;;;;;;11.58;nan;98806.63;2106498;28;20208;-74
2022/06/22 04:22:00;;;;;;;26.90;23.52;;;;;;;11.62;nan;98809.47;2105832;28;20261;-74
2022/06/22 04:23:01;;;;;;;25.67;23.27;;;;;;;11.66;nan;98812.31;2098543;28;20265;-74
2022/06/22 04:24:11;;;;;;;25.93;23.40;;;;;;;11.70;nan;98819.41;2106379;28;20189;-74
2022/06/22 04:25:21;;;;;;;24.92;22.42;;;;;;;11.72;nan;98811.06;2106915;28;20174;-74
2022/06/22 04:26:26;;;;;;;24.83;22.33;;;;;;;11.75;nan;98821.94;2106128;28;20295;-74
2022/06/22 04:27:30;;;;;;;24.77;22.23;;;;;;;11.84;nan;98825.47;2098482;28;20330;-75
2022/06/22 04:28:33;;;;;;;26.33;22.65;;;;;;;11.88;nan;98820.28;2106290;28;20280;-74
2022/06/22 04:29:38;;;;;;;25.05;22.65;;;;;;;11.92;nan;98812.44;2106112;28;20198;-74
2022/06/22 04:30:43;;;;;;;26.10;23.33;;;;;;;11.96;nan;98814.16;2106521;28;20711;-74
2022/06/22 04:31:52;;;;;;;24.88;22.42;;;;;;;12.03;nan;98816.38;2107050;28;20167;-74
2022/06/22 04:33:03;;;;;;;24.65;22.13;;;;;;;12.04;nan;98809.94;2106867;28;20174;-74
2022/06/22 04:34:07;;;;;;;26.45;22.35;;;;;;;12.11;nan;98816.41;2106806;28;20178;-74
2022/06/22 04:35:23;;;;;;;23.33;21.25;;;;;;;12.15;nan;98824.59;2106847;28;20190;-75
2022/06/22 04:36:27;;;;;;;24.73;21.60;;;;;;;12.19;nan;98817.53;2106409;28;20341;-74
2022/06/22 04:37:33;;;;;;;24.38;21.95;;;;;;;12.23;nan;98825.69;2106122;28;20240;-74
2022/06/22 04:38:38;;;;;;;30.58;22.75;;;;;;;12.27;nan;98822.09;2106768;28;20296;-73
2022/06/22 04:39:43;;;;;;;24.95;22.15;;;;;;;12.29;nan;98827.13;2114337;28;20715;-74
2022/06/22 04:40:54;;;;;;;25.00;21.25;;;;;;;12.33;nan;98831.53;2107673;28;20174;-74
2022/06/22 04:41:55;;;;;;;24.92;22.35;;;;;;;12.37;nan;98827.16;2100613;28;20198;-74
2022/06/22 04:42:59;;;;;;;26.50;22.00;;;;;;;12.40;nan;98831.88;2107575;28;20297;-74
2022/06/22 04:44:03;;;;;;;24.13;21.77;;;;;;;12.39;nan;98824.94;2107625;28;20221;-74
2022/06/22 04:45:04;;;;;;;24.02;21.77;;;;;;;12.41;nan;98830.75;2107761;28;20281;-74
2022/06/22 04:46:09;;;;;;;25.00;22.38;;;;;;;12.43;nan;98833.94;2108561;28;20186;-74
2022/06/22 04:47:13;;;;;;;29.75;23.02;;;;;;;12.47;nan;98836.75;2108389;28;20639;-74
2022/06/22 04:48:21;;;;;;;25.50;23.00;;;;;;;12.51;nan;98839.59;2108420;28;20186;-74
2022/06/22 04:49:25;;;;;;;25.85;23.27;;;;;;;12.53;nan;98842.75;2108452;28;20206;-75
2022/06/22 04:50:26;;;;;;;23.65;21.42;;;;;;;12.56;nan;98844.78;2108378;28;20549;-74
2022/06/22 04:51:32;;;;;;;24.80;22.27;;;;;;;12.56;nan;98839.44;2107973;28;20326;-74
2022/06/22 04:52:36;;;;;;;24.17;21.80;;;;;;;12.58;nan;98846.03;2116087;28;20627;-74
2022/06/22 04:53:42;;;;;;;24.35;21.88;;;;;;;12.54;nan;98839.75;2116065;28;20224;-74
2022/06/22 04:54:44;;;;;;;22.88;20.58;;;;;;;12.59;nan;98833.44;2108418;28;20528;-74
2022/06/22 04:55:47;;;;;;;23.05;20.95;;;;;;;12.61;nan;98836.63;2116072;28;20193;-74
2022/06/22 04:56:49;;;;;;;26.13;21.85;;;;;;;12.69;nan;98833.94;2107420;28;20329;-74
2022/06/22 04:57:53;;;;;;;23.63;21.13;;;;;;;12.72;nan;98833.31;2107674;28;20186;-74
2022/06/22 04:58:55;;;;;;;27.17;22.42;;;;;;;12.73;nan;98828.72;2107458;28;20301;-74
2022/06/22 04:59:58;;;;;;;25.38;20.65;;;;;;;12.73;nan;98839.44;2099240;28;20194;-74
2022/06/22 05:01:01;;;;;;;22.88;20.58;;;;;;;12.74;nan;98827.63;2107734;28;20284;-74
2022/06/22 05:02:04;;;;;;;24.30;21.83;;;;;;;12.78;nan;98847.31;2108206;28;20186;-74
2022/06/22 05:03:06;;;;;;;23.33;21.05;;;;;;;12.78;nan;98831.25;2108192;28;20694;-73
2022/06/22 05:04:13;;;;;;;23.42;21.20;;;;;;;12.79;nan;98832.84;2107502;28;20598;-74
2022/06/22 05:05:21;;;;;;;24.77;20.73;;;;;;;12.82;nan;98836.75;2099625;28;20588;-74
2022/06/22 05:06:24;;;;;;;23.98;21.52;;;;;;;12.85;nan;98836.91;2107349;28;20236;-74
2022/06/22 05:07:38;;;;;;;24.13;21.77;;;;;;;12.87;nan;98834.72;2108141;28;20211;-74
2022/06/22 05:08:44;;;;;;;23.67;21.38;;;;;;;12.92;nan;98836.44;2108201;28;20268;-74
2022/06/22 05:09:50;;;;;;;24.20;20.83;;;;;;;12.97;nan;98838.97;2108398;28;20166;-74
2022/06/22 05:10:53;;;;;;;22.55;20.45;;;;;;;13.01;nan;98837.22;2108348;28;20178;-74
2022/06/22 05:11:55;;;;;;;23.65;20.98;;;;;;;13.04;nan;98838.50;2108132;28;20610;-74
2022/06/22 05:12:58;;;;;;;22.52;20.20;;;;;;;13.08;nan;98844.78;2108323;28;20185;-74
2022/06/22 05:14:01;;;;;;;22.33;20.13;;;;;;;13.09;nan;98841.00;2108207;28;20198;-74
2022/06/22 05:15:03;;;;;;;23.25;20.15;;;;;;;13.12;nan;98846.53;2108079;28;20190;-73
2022/06/22 05:16:08;;;;;;;23.10;20.63;;;;;;;13.15;nan;98853.91;2108040;28;20185;-74